sensor_id;sensor_type;location;lat;lon;timestamp;P1;durP1;ratioP1;P2;durP2;ratioP2
63902;SDS011;50072;50.678;13.938;2023-02-15T00:00:31;69.07;;;21.25;;
63902;SDS011;50072;50.678;13.938;2023-02-15T00:03:21;66.40;;;21.33;;
63902;SDS011;50072;50.678;13.938;2023-02-15T00:06:01;72.18;;;21.80;;
63902;SDS011;50072;50.678;13.938;2023-02-15T00:08:33;74.18;;;22.95;;
63902;SDS011;50072;50.678;13.938;2023-02-15T00:11:14;64.53;;;21.75;;
63902;SDS011;50072;50.678;13.938;2023-02-15T00:13:51;66.95;;;20.10;;
63902;SDS011;50072;50.678;13.938;2023-02-15T00:18:51;67.45;;;21.83;;
63902;SDS011;50072;50.678;13.938;2023-02-15T00:21:22;63.65;;;21.05;;
63902;SDS011;50072;50.678;13.938;2023-02-15T00:23:51;67.18;;;20.63;;
63902;SDS011;50072;50.678;13.938;2023-02-15T00:29:02;60.63;;;19.23;;
63902;SDS011;50072;50.678;13.938;2023-02-15T00:34:04;53.83;;;18.30;;
63902;SDS011;50072;50.678;13.938;2023-02-15T00:36:51;61.22;;;18.98;;
63902;SDS011;50072;50.678;13.938;2023-02-15T00:41:51;56.15;;;17.75;;
63902;SDS011;50072;50.678;13.938;2023-02-15T00:47:01;59.67;;;19.50;;
63902;SDS011;50072;50.678;13.938;2023-02-15T00:49:33;62.40;;;17.65;;
63902;SDS011;50072;50.678;13.938;2023-02-15T00:54:32;55.22;;;15.60;;
63902;SDS011;50072;50.678;13.938;2023-02-15T00:59:35;55.38;;;16.88;;
63902;SDS011;50072;50.678;13.938;2023-02-15T01:02:03;64.07;;;17.80;;
63902;SDS011;50072;50.678;13.938;2023-02-15T01:04:31;67.03;;;18.83;;
63902;SDS011;50072;50.678;13.938;2023-02-15T01:07:03;62.90;;;17.70;;
63902;SDS011;50072;50.678;13.938;2023-02-15T01:12:00;57.70;;;16.58;;
63902;SDS011;50072;50.678;13.938;2023-02-15T01:14:34;58.10;;;17.02;;
63902;SDS011;50072;50.678;13.938;2023-02-15T01:17:03;59.05;;;17.15;;
63902;SDS011;50072;50.678;13.938;2023-02-15T01:19:33;59.55;;;17.17;;
63902;SDS011;50072;50.678;13.938;2023-02-15T01:22:06;58.78;;;16.75;;
63902;SDS011;50072;50.678;13.938;2023-02-15T01:24:33;57.00;;;17.00;;
63902;SDS011;50072;50.678;13.938;2023-02-15T01:27:05;51.70;;;17.73;;
63902;SDS011;50072;50.678;13.938;2023-02-15T01:29:33;54.25;;;16.90;;
63902;SDS011;50072;50.678;13.938;2023-02-15T01:32:01;50.15;;;16.38;;
63902;SDS011;50072;50.678;13.938;2023-02-15T01:34:33;55.97;;;16.25;;
63902;SDS011;50072;50.678;13.938;2023-02-15T01:37:05;46.20;;;14.52;;
63902;SDS011;50072;50.678;13.938;2023-02-15T01:39:33;47.88;;;15.27;;
63902;SDS011;50072;50.678;13.938;2023-02-15T01:50:15;56.40;;;16.45;;
63902;SDS011;50072;50.678;13.938;2023-02-15T01:52:53;49.75;;;16.45;;
63902;SDS011;50072;50.678;13.938;2023-02-15T01:55:21;47.55;;;15.27;;
63902;SDS011;50072;50.678;13.938;2023-02-15T01:58:03;50.35;;;15.75;;
63902;SDS011;50072;50.678;13.938;2023-02-15T02:00:33;53.83;;;16.02;;
63902;SDS011;50072;50.678;13.938;2023-02-15T02:03:03;53.00;;;17.13;;
63902;SDS011;50072;50.678;13.938;2023-02-15T02:10:36;49.25;;;15.23;;
63902;SDS011;50072;50.678;13.938;2023-02-15T02:15:39;43.75;;;14.10;;
63902;SDS011;50072;50.678;13.938;2023-02-15T02:18:22;47.70;;;15.32;;
63902;SDS011;50072;50.678;13.938;2023-02-15T02:21:09;50.83;;;15.43;;
63902;SDS011;50072;50.678;13.938;2023-02-15T02:33:18;46.53;;;14.23;;
63902;SDS011;50072;50.678;13.938;2023-02-15T02:47:08;49.90;;;13.43;;
63902;SDS011;50072;50.678;13.938;2023-02-15T02:49:58;46.60;;;13.68;;
63902;SDS011;50072;50.678;13.938;2023-02-15T03:06:06;47.22;;;15.57;;
63902;SDS011;50072;50.678;13.938;2023-02-15T03:09:06;44.17;;;14.45;;
63902;SDS011;50072;50.678;13.938;2023-02-15T03:12:04;48.50;;;13.80;;
63902;SDS011;50072;50.678;13.938;2023-02-15T03:14:35;48.22;;;13.43;;
63902;SDS011;50072;50.678;13.938;2023-02-15T03:17:03;47.65;;;12.27;;
63902;SDS011;50072;50.678;13.938;2023-02-15T03:19:34;38.78;;;12.65;;
63902;SDS011;50072;50.678;13.938;2023-02-15T03:24:53;37.85;;;12.45;;
63902;SDS011;50072;50.678;13.938;2023-02-15T03:27:22;41.17;;;13.20;;
63902;SDS011;50072;50.678;13.938;2023-02-15T03:29:56;35.67;;;13.13;;
63902;SDS011;50072;50.678;13.938;2023-02-15T03:32:31;40.65;;;12.27;;
63902;SDS011;50072;50.678;13.938;2023-02-15T03:35:03;37.28;;;12.65;;
63902;SDS011;50072;50.678;13.938;2023-02-15T03:37:35;39.45;;;12.13;;
63902;SDS011;50072;50.678;13.938;2023-02-15T03:43:29;36.47;;;12.15;;
63902;SDS011;50072;50.678;13.938;2023-02-15T03:46:08;32.05;;;10.82;;
63902;SDS011;50072;50.678;13.938;2023-02-15T03:51:34;32.30;;;10.88;;
63902;SDS011;50072;50.678;13.938;2023-02-15T03:54:27;33.15;;;11.35;;
63902;SDS011;50072;50.678;13.938;2023-02-15T03:57:15;35.80;;;11.85;;
63902;SDS011;50072;50.678;13.938;2023-02-15T04:00:23;32.72;;;10.80;;
63902;SDS011;50072;50.678;13.938;2023-02-15T04:09:03;33.47;;;12.85;;
63902;SDS011;50072;50.678;13.938;2023-02-15T04:14:33;40.17;;;13.85;;
63902;SDS011;50072;50.678;13.938;2023-02-15T04:17:21;34.67;;;11.48;;
63902;SDS011;50072;50.678;13.938;2023-02-15T04:19:51;37.13;;;12.15;;
63902;SDS011;50072;50.678;13.938;2023-02-15T04:22:35;35.60;;;12.05;;
63902;SDS011;50072;50.678;13.938;2023-02-15T04:25:33;33.45;;;12.18;;
63902;SDS011;50072;50.678;13.938;2023-02-15T04:27:59;30.95;;;11.32;;
63902;SDS011;50072;50.678;13.938;2023-02-15T04:30:31;29.88;;;10.30;;
63902;SDS011;50072;50.678;13.938;2023-02-15T04:33:03;32.30;;;11.23;;
63902;SDS011;50072;50.678;13.938;2023-02-15T04:37:59;33.42;;;10.90;;
63902;SDS011;50072;50.678;13.938;2023-02-15T04:40:33;34.47;;;11.95;;
63902;SDS011;50072;50.678;13.938;2023-02-15T04:45:35;35.72;;;10.90;;
63902;SDS011;50072;50.678;13.938;2023-02-15T04:48:02;36.33;;;11.38;;
63902;SDS011;50072;50.678;13.938;2023-02-15T04:50:33;35.40;;;12.50;;
63902;SDS011;50072;50.678;13.938;2023-02-15T04:53:04;30.75;;;11.30;;
63902;SDS011;50072;50.678;13.938;2023-02-15T04:55:33;34.33;;;11.65;;
63902;SDS011;50072;50.678;13.938;2023-02-15T04:58:03;30.48;;;11.27;;
63902;SDS011;50072;50.678;13.938;2023-02-15T05:00:29;39.63;;;12.50;;
63902;SDS011;50072;50.678;13.938;2023-02-15T05:02:55;38.63;;;11.95;;
63902;SDS011;50072;50.678;13.938;2023-02-15T05:05:20;31.75;;;11.13;;
63902;SDS011;50072;50.678;13.938;2023-02-15T05:07:47;36.95;;;11.27;;
63902;SDS011;50072;50.678;13.938;2023-02-15T05:10:13;37.53;;;12.48;;
63902;SDS011;50072;50.678;13.938;2023-02-15T05:12:40;42.50;;;14.35;;
63902;SDS011;50072;50.678;13.938;2023-02-15T05:15:06;42.30;;;13.43;;
63902;SDS011;50072;50.678;13.938;2023-02-15T05:17:33;35.50;;;12.57;;
63902;SDS011;50072;50.678;13.938;2023-02-15T05:19:58;37.78;;;12.23;;
63902;SDS011;50072;50.678;13.938;2023-02-15T05:22:24;38.95;;;12.98;;
63902;SDS011;50072;50.678;13.938;2023-02-15T05:24:51;34.53;;;11.23;;
63902;SDS011;50072;50.678;13.938;2023-02-15T05:27:43;35.33;;;11.13;;
63902;SDS011;50072;50.678;13.938;2023-02-15T05:30:27;32.58;;;10.98;;
63902;SDS011;50072;50.678;13.938;2023-02-15T05:32:53;37.47;;;12.68;;
63902;SDS011;50072;50.678;13.938;2023-02-15T05:35:19;37.47;;;12.68;;
63902;SDS011;50072;50.678;13.938;2023-02-15T05:37:46;39.22;;;12.57;;
63902;SDS011;50072;50.678;13.938;2023-02-15T05:40:12;50.92;;;15.80;;
63902;SDS011;50072;50.678;13.938;2023-02-15T05:42:38;49.67;;;13.88;;
63902;SDS011;50072;50.678;13.938;2023-02-15T05:45:05;40.85;;;14.10;;
63902;SDS011;50072;50.678;13.938;2023-02-15T05:47:33;38.80;;;14.25;;
63902;SDS011;50072;50.678;13.938;2023-02-15T05:49:59;38.95;;;12.65;;
63902;SDS011;50072;50.678;13.938;2023-02-15T05:52:25;51.65;;;16.23;;
63902;SDS011;50072;50.678;13.938;2023-02-15T05:54:52;43.35;;;15.18;;
63902;SDS011;50072;50.678;13.938;2023-02-15T05:57:21;37.00;;;12.23;;
63902;SDS011;50072;50.678;13.938;2023-02-15T05:59:47;36.70;;;12.02;;
63902;SDS011;50072;50.678;13.938;2023-02-15T06:02:14;32.17;;;11.55;;
63902;SDS011;50072;50.678;13.938;2023-02-15T06:04:40;32.15;;;11.38;;
63902;SDS011;50072;50.678;13.938;2023-02-15T06:07:07;32.80;;;11.30;;
63902;SDS011;50072;50.678;13.938;2023-02-15T06:09:34;39.53;;;12.48;;
63902;SDS011;50072;50.678;13.938;2023-02-15T06:12:01;35.50;;;12.20;;
63902;SDS011;50072;50.678;13.938;2023-02-15T06:14:29;35.88;;;12.48;;
63902;SDS011;50072;50.678;13.938;2023-02-15T06:16:57;34.30;;;12.48;;
63902;SDS011;50072;50.678;13.938;2023-02-15T06:19:23;35.35;;;11.98;;
63902;SDS011;50072;50.678;13.938;2023-02-15T06:21:50;43.22;;;13.45;;
63902;SDS011;50072;50.678;13.938;2023-02-15T06:24:19;38.13;;;12.45;;
63902;SDS011;50072;50.678;13.938;2023-02-15T06:26:46;36.35;;;12.27;;
63902;SDS011;50072;50.678;13.938;2023-02-15T06:29:13;39.40;;;12.70;;
63902;SDS011;50072;50.678;13.938;2023-02-15T06:31:40;39.58;;;13.25;;
63902;SDS011;50072;50.678;13.938;2023-02-15T06:34:06;46.97;;;14.02;;
63902;SDS011;50072;50.678;13.938;2023-02-15T06:36:34;42.22;;;13.30;;
63902;SDS011;50072;50.678;13.938;2023-02-15T06:39:01;66.57;;;19.00;;
63902;SDS011;50072;50.678;13.938;2023-02-15T06:41:28;59.78;;;19.05;;
63902;SDS011;50072;50.678;13.938;2023-02-15T06:44:03;42.03;;;12.82;;
63902;SDS011;50072;50.678;13.938;2023-02-15T06:51:54;42.45;;;12.43;;
63902;SDS011;50072;50.678;13.938;2023-02-15T06:54:21;41.83;;;13.15;;
63902;SDS011;50072;50.678;13.938;2023-02-15T06:56:47;38.45;;;14.23;;
63902;SDS011;50072;50.678;13.938;2023-02-15T07:01:51;59.80;;;17.88;;
63902;SDS011;50072;50.678;13.938;2023-02-15T07:04:33;43.03;;;14.73;;
63902;SDS011;50072;50.678;13.938;2023-02-15T07:09:35;45.95;;;16.27;;
63902;SDS011;50072;50.678;13.938;2023-02-15T07:14:54;33.95;;;11.07;;
63902;SDS011;50072;50.678;13.938;2023-02-15T07:17:21;40.10;;;11.85;;
63902;SDS011;50072;50.678;13.938;2023-02-15T07:19:51;49.05;;;14.48;;
63902;SDS011;50072;50.678;13.938;2023-02-15T07:22:33;52.10;;;16.80;;
63902;SDS011;50072;50.678;13.938;2023-02-15T07:25:04;51.95;;;17.60;;
63902;SDS011;50072;50.678;13.938;2023-02-15T07:27:32;46.30;;;16.02;;
63902;SDS011;50072;50.678;13.938;2023-02-15T07:30:04;49.17;;;16.42;;
63902;SDS011;50072;50.678;13.938;2023-02-15T07:32:34;49.92;;;19.35;;
63902;SDS011;50072;50.678;13.938;2023-02-15T07:35:06;46.20;;;13.52;;
63902;SDS011;50072;50.678;13.938;2023-02-15T07:37:32;44.20;;;13.98;;
63902;SDS011;50072;50.678;13.938;2023-02-15T07:40:03;48.38;;;15.68;;
63902;SDS011;50072;50.678;13.938;2023-02-15T07:42:36;41.88;;;12.75;;
63902;SDS011;50072;50.678;13.938;2023-02-15T07:45:03;40.93;;;13.57;;
63902;SDS011;50072;50.678;13.938;2023-02-15T07:47:35;28.83;;;9.98;;
63902;SDS011;50072;50.678;13.938;2023-02-15T07:50:04;27.17;;;9.48;;
63902;SDS011;50072;50.678;13.938;2023-02-15T07:52:33;40.40;;;12.80;;
63902;SDS011;50072;50.678;13.938;2023-02-15T07:55:05;35.55;;;11.02;;
63902;SDS011;50072;50.678;13.938;2023-02-15T07:57:31;33.78;;;11.05;;
63902;SDS011;50072;50.678;13.938;2023-02-15T08:00:03;32.13;;;11.35;;
63902;SDS011;50072;50.678;13.938;2023-02-15T08:02:35;32.95;;;10.65;;
63902;SDS011;50072;50.678;13.938;2023-02-15T08:05:03;38.15;;;12.05;;
63902;SDS011;50072;50.678;13.938;2023-02-15T08:07:35;35.72;;;11.80;;
63902;SDS011;50072;50.678;13.938;2023-02-15T08:10:03;30.73;;;12.07;;
63902;SDS011;50072;50.678;13.938;2023-02-15T08:12:33;33.03;;;10.73;;
63902;SDS011;50072;50.678;13.938;2023-02-15T08:15:01;29.92;;;10.57;;
63902;SDS011;50072;50.678;13.938;2023-02-15T08:17:35;29.48;;;11.68;;
63902;SDS011;50072;50.678;13.938;2023-02-15T08:20:03;30.52;;;11.10;;
63902;SDS011;50072;50.678;13.938;2023-02-15T08:22:33;31.67;;;11.05;;
63902;SDS011;50072;50.678;13.938;2023-02-15T08:25:03;42.70;;;12.85;;
63902;SDS011;50072;50.678;13.938;2023-02-15T08:27:35;39.55;;;14.32;;
63902;SDS011;50072;50.678;13.938;2023-02-15T08:30:03;46.97;;;16.03;;
63902;SDS011;50072;50.678;13.938;2023-02-15T08:32:35;42.35;;;14.07;;
63902;SDS011;50072;50.678;13.938;2023-02-15T08:35:03;46.90;;;14.82;;
63902;SDS011;50072;50.678;13.938;2023-02-15T08:37:35;39.78;;;12.88;;
63902;SDS011;50072;50.678;13.938;2023-02-15T08:40:04;34.45;;;12.90;;
63902;SDS011;50072;50.678;13.938;2023-02-15T08:42:33;40.70;;;13.68;;
63902;SDS011;50072;50.678;13.938;2023-02-15T08:45:05;42.00;;;13.60;;
63902;SDS011;50072;50.678;13.938;2023-02-15T08:47:32;46.30;;;17.25;;
63902;SDS011;50072;50.678;13.938;2023-02-15T08:49:58;45.83;;;15.57;;
63902;SDS011;50072;50.678;13.938;2023-02-15T08:52:25;43.03;;;15.82;;
63902;SDS011;50072;50.678;13.938;2023-02-15T08:54:51;43.22;;;15.65;;
63902;SDS011;50072;50.678;13.938;2023-02-15T08:57:17;62.42;;;19.77;;
63902;SDS011;50072;50.678;13.938;2023-02-15T08:59:43;47.30;;;15.80;;
63902;SDS011;50072;50.678;13.938;2023-02-15T09:02:11;39.20;;;14.93;;
63902;SDS011;50072;50.678;13.938;2023-02-15T09:04:36;51.58;;;18.63;;
63902;SDS011;50072;50.678;13.938;2023-02-15T09:07:02;44.42;;;16.00;;
63902;SDS011;50072;50.678;13.938;2023-02-15T09:09:31;40.63;;;14.70;;
63902;SDS011;50072;50.678;13.938;2023-02-15T09:11:57;56.17;;;19.85;;
63902;SDS011;50072;50.678;13.938;2023-02-15T09:14:24;44.00;;;15.30;;
63902;SDS011;50072;50.678;13.938;2023-02-15T09:16:52;64.78;;;22.33;;
63902;SDS011;50072;50.678;13.938;2023-02-15T09:19:19;59.90;;;19.52;;
63902;SDS011;50072;50.678;13.938;2023-02-15T09:21:46;38.42;;;15.10;;
63902;SDS011;50072;50.678;13.938;2023-02-15T09:24:12;50.40;;;17.73;;
63902;SDS011;50072;50.678;13.938;2023-02-15T09:26:43;40.50;;;14.60;;
63902;SDS011;50072;50.678;13.938;2023-02-15T09:29:13;40.83;;;15.20;;
63902;SDS011;50072;50.678;13.938;2023-02-15T09:31:44;41.22;;;14.45;;
63902;SDS011;50072;50.678;13.938;2023-02-15T09:34:12;41.88;;;15.05;;
63902;SDS011;50072;50.678;13.938;2023-02-15T09:36:40;62.67;;;19.48;;
63902;SDS011;50072;50.678;13.938;2023-02-15T09:39:16;84.05;;;27.33;;
63902;SDS011;50072;50.678;13.938;2023-02-15T09:41:53;65.82;;;20.88;;
63902;SDS011;50072;50.678;13.938;2023-02-15T09:52:48;52.78;;;19.92;;
63902;SDS011;50072;50.678;13.938;2023-02-15T09:55:48;49.45;;;16.95;;
63902;SDS011;50072;50.678;13.938;2023-02-15T10:01:22;54.33;;;19.38;;
63902;SDS011;50072;50.678;13.938;2023-02-15T10:18:25;30.70;;;12.80;;
63902;SDS011;50072;50.678;13.938;2023-02-15T10:23:55;30.48;;;12.45;;
63902;SDS011;50072;50.678;13.938;2023-02-15T10:26:40;40.28;;;15.52;;
63902;SDS011;50072;50.678;13.938;2023-02-15T10:31:50;27.95;;;11.75;;
63902;SDS011;50072;50.678;13.938;2023-02-15T10:37:13;23.95;;;10.50;;
63902;SDS011;50072;50.678;13.938;2023-02-15T10:42:27;30.08;;;12.00;;
63902;SDS011;50072;50.678;13.938;2023-02-15T10:45:24;31.92;;;12.45;;
63902;SDS011;50072;50.678;13.938;2023-02-15T10:50:57;40.28;;;15.35;;
63902;SDS011;50072;50.678;13.938;2023-02-15T10:53:36;38.08;;;14.32;;
63902;SDS011;50072;50.678;13.938;2023-02-15T10:59:06;40.95;;;16.10;;
63902;SDS011;50072;50.678;13.938;2023-02-15T11:01:50;29.08;;;11.52;;
63902;SDS011;50072;50.678;13.938;2023-02-15T11:04:32;25.40;;;9.95;;
63902;SDS011;50072;50.678;13.938;2023-02-15T11:07:23;26.50;;;10.07;;
63902;SDS011;50072;50.678;13.938;2023-02-15T11:12:52;48.30;;;15.95;;
63902;SDS011;50072;50.678;13.938;2023-02-15T11:15:30;38.03;;;14.45;;
63902;SDS011;50072;50.678;13.938;2023-02-15T11:17:59;26.20;;;11.25;;
63902;SDS011;50072;50.678;13.938;2023-02-15T11:20:35;23.50;;;10.43;;
63902;SDS011;50072;50.678;13.938;2023-02-15T11:23:07;27.67;;;11.27;;
63902;SDS011;50072;50.678;13.938;2023-02-15T11:25:43;25.73;;;11.43;;
63902;SDS011;50072;50.678;13.938;2023-02-15T11:28:25;28.13;;;12.75;;
63902;SDS011;50072;50.678;13.938;2023-02-15T11:30:58;28.92;;;12.07;;
63902;SDS011;50072;50.678;13.938;2023-02-15T11:33:29;29.05;;;11.88;;
63902;SDS011;50072;50.678;13.938;2023-02-15T11:36:03;32.05;;;13.73;;
63902;SDS011;50072;50.678;13.938;2023-02-15T11:38:34;39.17;;;15.32;;
63902;SDS011;50072;50.678;13.938;2023-02-15T11:41:03;36.83;;;14.95;;
63902;SDS011;50072;50.678;13.938;2023-02-15T11:43:54;39.80;;;15.95;;
63902;SDS011;50072;50.678;13.938;2023-02-15T11:46:28;40.92;;;16.58;;
63902;SDS011;50072;50.678;13.938;2023-02-15T11:48:53;51.00;;;18.25;;
63902;SDS011;50072;50.678;13.938;2023-02-15T11:51:20;44.40;;;18.30;;
63902;SDS011;50072;50.678;13.938;2023-02-15T11:53:48;43.20;;;17.02;;
63902;SDS011;50072;50.678;13.938;2023-02-15T11:56:16;61.35;;;20.83;;
63902;SDS011;50072;50.678;13.938;2023-02-15T12:14:54;51.15;;;17.67;;
63902;SDS011;50072;50.678;13.938;2023-02-15T12:17:32;45.25;;;17.50;;
63902;SDS011;50072;50.678;13.938;2023-02-15T12:20:00;41.28;;;15.95;;
63902;SDS011;50072;50.678;13.938;2023-02-15T12:22:30;39.50;;;16.52;;
63902;SDS011;50072;50.678;13.938;2023-02-15T12:27:43;40.60;;;16.33;;
63902;SDS011;50072;50.678;13.938;2023-02-15T12:33:05;87.00;;;30.25;;
63902;SDS011;50072;50.678;13.938;2023-02-15T12:35:43;63.22;;;24.90;;
63902;SDS011;50072;50.678;13.938;2023-02-15T12:40:35;43.85;;;18.13;;
63902;SDS011;50072;50.678;13.938;2023-02-15T12:43:03;50.88;;;19.65;;
63902;SDS011;50072;50.678;13.938;2023-02-15T12:45:34;45.92;;;17.73;;
63902;SDS011;50072;50.678;13.938;2023-02-15T12:50:41;41.30;;;16.95;;
63902;SDS011;50072;50.678;13.938;2023-02-15T12:55:57;45.97;;;18.02;;
63902;SDS011;50072;50.678;13.938;2023-02-15T12:58:33;52.25;;;20.13;;
63902;SDS011;50072;50.678;13.938;2023-02-15T13:01:09;49.17;;;21.08;;
63902;SDS011;50072;50.678;13.938;2023-02-15T13:04:01;46.08;;;19.40;;
63902;SDS011;50072;50.678;13.938;2023-02-15T13:06:31;47.22;;;19.58;;
63902;SDS011;50072;50.678;13.938;2023-02-15T13:09:11;45.55;;;17.63;;
63902;SDS011;50072;50.678;13.938;2023-02-15T13:11:41;40.45;;;17.00;;
63902;SDS011;50072;50.678;13.938;2023-02-15T13:14:31;40.83;;;16.45;;
63902;SDS011;50072;50.678;13.938;2023-02-15T13:17:00;39.08;;;15.32;;
63902;SDS011;50072;50.678;13.938;2023-02-15T13:22:16;43.90;;;18.27;;
63902;SDS011;50072;50.678;13.938;2023-02-15T13:24:49;35.45;;;13.60;;
63902;SDS011;50072;50.678;13.938;2023-02-15T13:27:21;43.95;;;15.57;;
63902;SDS011;50072;50.678;13.938;2023-02-15T13:29:51;37.78;;;15.13;;
63902;SDS011;50072;50.678;13.938;2023-02-15T13:32:36;47.60;;;17.95;;
63902;SDS011;50072;50.678;13.938;2023-02-15T13:35:10;52.65;;;20.58;;
63902;SDS011;50072;50.678;13.938;2023-02-15T13:37:59;52.58;;;20.20;;
63902;SDS011;50072;50.678;13.938;2023-02-15T13:40:39;42.15;;;17.60;;
63902;SDS011;50072;50.678;13.938;2023-02-15T13:45:49;49.78;;;19.77;;
63902;SDS011;50072;50.678;13.938;2023-02-15T13:48:37;47.15;;;18.70;;
63902;SDS011;50072;50.678;13.938;2023-02-15T14:16:24;50.58;;;19.05;;
63902;SDS011;50072;50.678;13.938;2023-02-15T14:19:10;56.92;;;20.85;;
63902;SDS011;50072;50.678;13.938;2023-02-15T14:21:47;58.22;;;22.48;;
63902;SDS011;50072;50.678;13.938;2023-02-15T14:27:04;51.42;;;18.17;;
63902;SDS011;50072;50.678;13.938;2023-02-15T14:29:46;57.42;;;22.10;;
63902;SDS011;50072;50.678;13.938;2023-02-15T14:32:20;53.15;;;20.77;;
63902;SDS011;50072;50.678;13.938;2023-02-15T14:35:00;48.22;;;17.80;;
63902;SDS011;50072;50.678;13.938;2023-02-15T14:37:50;44.80;;;16.25;;
63902;SDS011;50072;50.678;13.938;2023-02-15T14:40:32;46.58;;;17.10;;
63902;SDS011;50072;50.678;13.938;2023-02-15T14:51:54;37.03;;;15.32;;
63902;SDS011;50072;50.678;13.938;2023-02-15T14:56:47;38.40;;;15.18;;
63902;SDS011;50072;50.678;13.938;2023-02-15T15:02:12;42.03;;;16.10;;
63902;SDS011;50072;50.678;13.938;2023-02-15T15:04:45;39.92;;;16.38;;
63902;SDS011;50072;50.678;13.938;2023-02-15T15:07:43;38.20;;;14.50;;
63902;SDS011;50072;50.678;13.938;2023-02-15T15:12:53;42.55;;;15.88;;
63902;SDS011;50072;50.678;13.938;2023-02-15T15:17:54;41.47;;;15.73;;
63902;SDS011;50072;50.678;13.938;2023-02-15T15:25:44;39.65;;;15.90;;
63902;SDS011;50072;50.678;13.938;2023-02-15T15:36:30;50.78;;;17.52;;
63902;SDS011;50072;50.678;13.938;2023-02-15T15:39:33;45.53;;;17.83;;
63902;SDS011;50072;50.678;13.938;2023-02-15T15:50:40;40.78;;;16.85;;
63902;SDS011;50072;50.678;13.938;2023-02-15T15:53:23;48.08;;;18.23;;
63902;SDS011;50072;50.678;13.938;2023-02-15T15:55:55;57.45;;;20.25;;
63902;SDS011;50072;50.678;13.938;2023-02-15T15:58:44;54.60;;;20.55;;
63902;SDS011;50072;50.678;13.938;2023-02-15T16:01:28;49.28;;;17.52;;
63902;SDS011;50072;50.678;13.938;2023-02-15T16:04:03;45.80;;;16.73;;
63902;SDS011;50072;50.678;13.938;2023-02-15T16:06:35;48.53;;;17.10;;
63902;SDS011;50072;50.678;13.938;2023-02-15T16:11:59;51.67;;;17.77;;
63902;SDS011;50072;50.678;13.938;2023-02-15T16:14:36;53.95;;;18.45;;
63902;SDS011;50072;50.678;13.938;2023-02-15T16:17:18;41.22;;;15.98;;
63902;SDS011;50072;50.678;13.938;2023-02-15T16:20:06;47.50;;;16.85;;
63902;SDS011;50072;50.678;13.938;2023-02-15T16:22:49;49.83;;;17.58;;
63902;SDS011;50072;50.678;13.938;2023-02-15T16:28:15;77.47;;;28.73;;
63902;SDS011;50072;50.678;13.938;2023-02-15T16:30:43;92.07;;;35.80;;
63902;SDS011;50072;50.678;13.938;2023-02-15T16:35:59;44.70;;;17.55;;
63902;SDS011;50072;50.678;13.938;2023-02-15T16:41:26;49.45;;;16.58;;
63902;SDS011;50072;50.678;13.938;2023-02-15T16:44:06;56.08;;;19.45;;
63902;SDS011;50072;50.678;13.938;2023-02-15T16:46:45;56.80;;;21.70;;
63902;SDS011;50072;50.678;13.938;2023-02-15T16:49:24;49.58;;;18.30;;
63902;SDS011;50072;50.678;13.938;2023-02-15T16:52:04;47.78;;;16.25;;
63902;SDS011;50072;50.678;13.938;2023-02-15T16:54:33;50.42;;;17.13;;
63902;SDS011;50072;50.678;13.938;2023-02-15T16:57:01;61.40;;;20.83;;
63902;SDS011;50072;50.678;13.938;2023-02-15T16:59:38;52.28;;;19.10;;
63902;SDS011;50072;50.678;13.938;2023-02-15T17:02:26;49.13;;;17.67;;
63902;SDS011;50072;50.678;13.938;2023-02-15T17:11:08;51.78;;;17.55;;
63902;SDS011;50072;50.678;13.938;2023-02-15T17:16:50;51.28;;;18.48;;
63902;SDS011;50072;50.678;13.938;2023-02-15T17:19:31;54.03;;;20.30;;
63902;SDS011;50072;50.678;13.938;2023-02-15T17:21:59;54.90;;;19.88;;
63902;SDS011;50072;50.678;13.938;2023-02-15T17:27:55;51.33;;;16.98;;
63902;SDS011;50072;50.678;13.938;2023-02-15T17:33:35;48.53;;;16.33;;
63902;SDS011;50072;50.678;13.938;2023-02-15T17:36:23;58.25;;;18.10;;
63902;SDS011;50072;50.678;13.938;2023-02-15T17:41:43;52.10;;;18.80;;
63902;SDS011;50072;50.678;13.938;2023-02-15T17:47:03;51.22;;;18.02;;
63902;SDS011;50072;50.678;13.938;2023-02-15T17:49:43;56.20;;;19.77;;
63902;SDS011;50072;50.678;13.938;2023-02-15T17:52:12;53.70;;;19.45;;
63902;SDS011;50072;50.678;13.938;2023-02-15T17:54:52;51.38;;;18.83;;
63902;SDS011;50072;50.678;13.938;2023-02-15T17:57:53;58.08;;;19.38;;
63902;SDS011;50072;50.678;13.938;2023-02-15T18:00:31;56.42;;;18.05;;
63902;SDS011;50072;50.678;13.938;2023-02-15T18:03:17;49.40;;;17.13;;
63902;SDS011;50072;50.678;13.938;2023-02-15T18:06:03;53.22;;;19.27;;
63902;SDS011;50072;50.678;13.938;2023-02-15T18:09:01;58.72;;;21.15;;
63902;SDS011;50072;50.678;13.938;2023-02-15T18:11:50;56.72;;;19.52;;
63902;SDS011;50072;50.678;13.938;2023-02-15T18:14:22;55.70;;;20.58;;
63902;SDS011;50072;50.678;13.938;2023-02-15T18:17:03;69.00;;;21.80;;
63902;SDS011;50072;50.678;13.938;2023-02-15T18:19:30;66.68;;;21.77;;
63902;SDS011;50072;50.678;13.938;2023-02-15T18:22:30;62.17;;;21.88;;
63902;SDS011;50072;50.678;13.938;2023-02-15T18:24:51;62.78;;;19.95;;
63902;SDS011;50072;50.678;13.938;2023-02-15T18:27:17;65.88;;;20.17;;
63902;SDS011;50072;50.678;13.938;2023-02-15T18:29:43;59.70;;;19.48;;
63902;SDS011;50072;50.678;13.938;2023-02-15T18:35:03;71.68;;;21.52;;
63902;SDS011;50072;50.678;13.938;2023-02-15T18:37:30;63.33;;;21.48;;
63902;SDS011;50072;50.678;13.938;2023-02-15T18:39:59;70.03;;;22.60;;
63902;SDS011;50072;50.678;13.938;2023-02-15T18:42:30;79.75;;;23.92;;
63902;SDS011;50072;50.678;13.938;2023-02-15T18:47:57;61.35;;;20.08;;
63902;SDS011;50072;50.678;13.938;2023-02-15T18:50:23;68.57;;;23.23;;
63902;SDS011;50072;50.678;13.938;2023-02-15T18:52:53;73.78;;;23.42;;
63902;SDS011;50072;50.678;13.938;2023-02-15T18:55:20;70.95;;;21.67;;
63902;SDS011;50072;50.678;13.938;2023-02-15T18:57:53;72.72;;;22.70;;
63902;SDS011;50072;50.678;13.938;2023-02-15T19:00:34;67.10;;;22.92;;
63902;SDS011;50072;50.678;13.938;2023-02-15T19:03:03;64.22;;;22.17;;
63902;SDS011;50072;50.678;13.938;2023-02-15T19:05:31;66.75;;;22.10;;
63902;SDS011;50072;50.678;13.938;2023-02-15T19:07:58;69.60;;;21.65;;
63902;SDS011;50072;50.678;13.938;2023-02-15T19:10:34;63.88;;;22.05;;
63902;SDS011;50072;50.678;13.938;2023-02-15T19:13:04;61.97;;;21.27;;
63902;SDS011;50072;50.678;13.938;2023-02-15T19:15:39;64.13;;;20.95;;
63902;SDS011;50072;50.678;13.938;2023-02-15T19:18:17;69.78;;;22.23;;
63902;SDS011;50072;50.678;13.938;2023-02-15T19:20:45;65.35;;;22.02;;
63902;SDS011;50072;50.678;13.938;2023-02-15T19:23:22;64.22;;;20.65;;
63902;SDS011;50072;50.678;13.938;2023-02-15T19:26:04;56.08;;;20.52;;
63902;SDS011;50072;50.678;13.938;2023-02-15T19:28:34;68.82;;;20.83;;
63902;SDS011;50072;50.678;13.938;2023-02-15T19:31:03;64.38;;;21.33;;
63902;SDS011;50072;50.678;13.938;2023-02-15T19:33:37;58.63;;;20.08;;
63902;SDS011;50072;50.678;13.938;2023-02-15T19:36:03;58.38;;;20.40;;
63902;SDS011;50072;50.678;13.938;2023-02-15T19:38:32;55.03;;;19.42;;